Time;durP1;ratioP1;P1;durP2;ratioP2;P2;SDS_P1;SDS_P2;PMS_P1;PMS_P2;Temp;Humidity;BMP_temperature;BMP_pressure;BME280_temperature;BME280_humidity;BME280_pressure;Samples;Min_cycle;Max_cycle;Signal;HPM_P1;HPM_P2
2023/09/23 00:01:10;;;;;;;7.00;4.80;;;;;;;22.94;65.53;99727.86;104248;1256;60895;-59
2023/09/23 00:03:38;;;;;;;;;;;;;;;22.90;65.56;99729.64;104319;1255;74368;-59
2023/09/23 00:06:08;;;;;;;7.50;4.50;;;;;;;22.89;65.26;99730.49;108665;1253;69730;-60
2023/09/23 00:08:36;;;;;;;5.00;4.20;;;;;;;22.88;65.54;99736.32;108620;1252;72344;-60
2023/09/23 00:11:04;;;;;;;10.30;4.70;;;;;;;22.89;65.52;99734.78;108511;1253;60169;-59
2023/09/23 00:13:32;;;;;;;9.90;4.90;;;;;;;22.88;65.73;99735.58;108700;1251;59553;-59
2023/09/23 00:16:05;;;;;;;7.70;4.70;;;;;;;22.88;65.41;99738.98;108744;1251;73116;-60
2023/09/23 00:18:34;;;;;;;6.80;4.70;;;;;;;22.87;65.85;99736.42;108521;1252;69333;-60
2023/09/23 00:21:05;;;;;;;8.60;4.60;;;;;;;22.87;65.90;99740.83;108590;1251;72364;-59
2023/09/23 00:23:32;;;;;;;7.90;4.70;;;;;;;22.87;66.33;99746.92;108549;1252;60109;-59
2023/09/23 00:26:08;;;;;;;9.00;4.60;;;;;;;22.88;66.71;99745.70;108502;1253;59731;-60
2023/09/23 00:28:37;;;;;;;10.30;5.20;;;;;;;22.89;67.40;99742.23;108642;1251;73496;-60
2023/09/23 00:31:07;;;;;;;6.80;4.50;;;;;;;22.90;68.08;99747.14;108509;1251;69067;-60
2023/09/23 00:33:37;;;;;;;4.70;4.30;;;;;;;22.89;68.59;99749.05;108479;1251;72772;-60
2023/09/23 00:36:07;;;;;;;5.10;4.30;;;;;;;22.88;67.60;99748.64;108674;1251;60724;-59
2023/09/23 00:38:38;;;;;;;6.30;4.70;;;;;;;22.87;67.32;99746.62;108492;1251;59754;-61
2023/09/23 00:41:06;;;;;;;7.50;5.10;;;;;;;22.87;67.09;99745.55;108522;1253;74088;-59
2023/09/23 00:43:34;;;;;;;;;;;;;;;22.87;66.93;99737.44;108504;1252;70651;-59
2023/09/23 00:46:05;;;;;;;7.80;4.70;;;;;;;22.88;66.44;99735.55;108506;1253;72721;-59
2023/09/23 00:48:43;;;;;;;6.40;4.20;;;;;;;22.92;66.48;99733.03;108297;1253;59702;-59
2023/09/23 00:51:12;;;;;;;6.60;4.90;;;;;;;22.92;66.49;99738.45;108572;1251;59656;-58
2023/09/23 00:53:44;;;;;;;9.90;5.20;;;;;;;22.87;66.54;99734.41;108327;1253;74092;-59
2023/09/23 00:56:12;;;;;;;7.70;5.30;;;;;;;22.81;67.17;99738.55;108550;1252;69753;-59
2023/09/23 00:58:42;;;;;;;;;;;;;;;22.79;67.31;99740.01;108515;1251;72351;-59
2023/09/23 01:02:40;;;;;;;6.00;4.80;;;;;;;22.28;71.57;99742.27;103350;1291;601508;-59
2023/09/23 01:05:09;;;;;;;7.80;5.30;;;;;;;22.67;68.78;99743.45;103473;1271;59479;-62
2023/09/23 01:07:38;;;;;;;6.50;5.20;;;;;;;22.62;68.13;99743.32;103509;1265;59810;-59
2023/09/23 01:10:06;;;;;;;9.20;5.20;;;;;;;22.62;67.90;99745.52;103494;1278;71925;-59
2023/09/23 01:12:34;;;;;;;6.50;4.90;;;;;;;22.58;68.34;99748.14;103506;1270;69230;-59
2023/09/23 01:15:03;;;;;;;6.90;5.10;;;;;;;22.55;68.02;99749.35;103451;1273;72540;-58
2023/09/23 01:17:31;;;;;;;9.30;4.90;;;;;;;22.51;67.80;99748.41;103747;1263;263415;-59
2023/09/23 01:20:00;;;;;;;;;;;;;;;22.44;67.94;99749.65;103927;1264;59723;-59
2023/09/23 01:22:29;;;;;;;10.00;5.00;;;;;;;22.36;68.29;99750.15;103919;1269;72317;-58
2023/09/23 01:24:58;;;;;;;5.90;5.40;;;;;;;22.30;68.43;99754.64;103695;1270;70089;-59
2023/09/23 01:27:26;;;;;;;7.40;5.10;;;;;;;22.24;68.57;99757.98;103818;1268;72337;-59
2023/09/23 01:29:54;;;;;;;;;;;;;;;22.19;69.07;99763.23;103854;1287;60057;-58
2023/09/23 01:32:48;;;;;;;5.50;5.00;;;;;;;22.11;70.00;99763.42;103875;1264;59710;-58
2023/09/23 01:35:20;;;;;;;5.30;4.80;;;;;;;22.01;70.15;99764.55;103967;1267;73253;-58
2023/09/23 01:37:51;;;;;;;9.20;5.70;;;;;;;21.93;70.38;99764.81;103866;1285;70008;-59
2023/09/23 01:40:19;;;;;;;8.60;4.90;;;;;;;21.89;70.91;99765.60;103891;1285;71819;-58
2023/09/23 01:42:49;;;;;;;8.20;4.90;;;;;;;21.80;71.07;99767.04;104032;1274;59811;-58
2023/09/23 01:45:19;;;;;;;5.20;4.70;;;;;;;21.75;71.17;99763.76;104085;1257;60449;-58
2023/09/23 01:47:47;;;;;;;5.60;5.10;;;;;;;21.68;71.81;99764.90;104034;1260;73768;-58
2023/09/23 01:50:19;;;;;;;9.80;5.20;;;;;;;21.61;72.17;99767.31;104053;1279;69222;-58
2023/09/23 01:52:46;;;;;;;8.00;5.50;;;;;;;21.53;72.89;99768.35;104023;1261;73369;-58
2023/09/23 01:55:17;;;;;;;9.70;5.60;;;;;;;21.49;73.51;99773.67;104103;1257;60722;-58
2023/09/23 01:57:47;;;;;;;8.80;5.30;;;;;;;21.42;73.87;99772.27;104047;1256;60043;-58
2023/09/23 02:00:21;;;;;;;6.20;5.10;;;;;;;21.37;74.29;99772.37;104371;1259;73243;-59
2023/09/23 02:02:49;;;;;;;7.60;5.50;;;;;;;21.33;74.86;99776.40;104295;1259;68577;-59
2023/09/23 02:05:18;;;;;;;8.30;5.70;;;;;;;21.29;75.35;99773.24;104199;1263;73324;-58
2023/09/23 02:07:49;;;;;;;9.40;4.90;;;;;;;21.23;75.81;99778.70;104064;1258;60174;-58
2023/09/23 02:10:17;;;;;;;9.30;5.50;;;;;;;21.19;76.61;99777.58;104109;1259;60672;-58
2023/09/23 02:12:47;;;;;;;10.00;5.60;;;;;;;21.15;77.51;99782.02;104021;1257;73281;-58
2023/09/23 02:15:15;;;;;;;9.80;5.20;;;;;;;21.12;77.48;99786.05;104038;1263;69443;-58
2023/09/23 02:17:44;;;;;;;7.30;5.30;;;;;;;21.10;77.76;99785.14;103991;1259;73432;-58
2023/09/23 02:20:19;;;;;;;10.20;5.60;;;;;;;21.09;78.36;99782.77;103970;1257;60112;-58
2023/09/23 02:22:55;;;;;;;9.10;5.90;;;;;;;21.07;78.80;99782.07;103957;1279;59827;-58
2023/09/23 02:25:25;;;;;;;6.80;5.60;;;;;;;21.04;78.80;99782.68;104026;1258;73698;-59
2023/09/23 02:27:55;;;;;;;9.90;5.60;;;;;;;21.01;79.14;99783.79;103966;1262;69069;-58
2023/09/23 02:30:23;;;;;;;9.50;5.60;;;;;;;20.97;79.80;99785.02;104041;1261;72969;-58
2023/09/23 02:32:51;;;;;;;10.20;6.00;;;;;;;20.92;80.64;99783.66;104003;1257;59934;-58
2023/09/23 02:35:21;;;;;;;10.80;5.60;;;;;;;20.87;81.38;99785.65;104039;1258;60084;-58
2023/09/23 02:37:49;;;;;;;8.60;5.30;;;;;;;20.84;82.44;99789.15;104006;1260;73144;-58
2023/09/23 02:40:17;;;;;;;6.10;5.50;;;;;;;20.77;83.48;99790.63;104021;1260;69687;-58
2023/09/23 02:42:47;;;;;;;9.50;6.10;;;;;;;20.72;84.47;99795.84;103967;1261;73322;-59
2023/09/23 02:45:16;;;;;;;7.00;6.20;;;;;;;20.68;85.21;99798.46;103997;1261;61526;-58
2023/09/23 02:47:46;;;;;;;9.00;6.30;;;;;;;20.64;86.31;99801.45;104203;1260;59888;-59
2023/09/23 02:50:15;;;;;;;11.30;6.40;;;;;;;20.61;86.93;99810.39;104007;1277;72907;-59
2023/09/23 02:52:44;;;;;;;6.80;5.70;;;;;;;20.57;88.07;99815.70;104007;1256;69065;-59
2023/09/23 02:55:14;;;;;;;9.60;6.00;;;;;;;20.56;88.83;99819.52;104056;1257;73392;-58
2023/09/23 02:57:54;;;;;;;7.40;5.80;;;;;;;20.52;89.48;99820.70;103986;1258;61511;-58
2023/09/23 03:00:29;;;;;;;8.20;5.70;;;;;;;20.48;90.49;99817.48;104069;1259;60027;-58
2023/09/23 03:02:58;;;;;;;8.00;6.20;;;;;;;20.48;90.64;99815.59;104169;1256;72881;-59
2023/09/23 03:05:31;;;;;;;7.60;6.30;;;;;;;20.45;91.12;99815.27;104042;1278;68045;-59
2023/09/23 03:07:59;;;;;;;9.70;6.20;;;;;;;20.41;91.78;99811.64;104114;1257;72554;-59
2023/09/23 03:10:34;;;;;;;11.80;6.10;;;;;;;20.38;92.22;99813.86;104151;1256;61502;-59
2023/09/23 03:13:04;;;;;;;8.50;6.10;;;;;;;20.37;92.22;99810.39;104029;1263;59943;-59
2023/09/23 03:15:53;;;;;;;6.50;5.40;;;;;;;20.34;91.76;99808.34;104077;1261;72771;-59
2023/09/23 03:18:33;;;;;;;9.50;5.60;;;;;;;20.34;91.60;99807.27;103957;1262;70236;-59
2023/09/23 03:21:08;;;;;;;9.20;5.50;;;;;;;20.33;91.05;99805.01;104130;1256;72385;-58
2023/09/23 03:23:39;;;;;;;8.30;6.00;;;;;;;20.30;91.27;99806.84;104251;1256;61997;-58
2023/09/23 03:26:08;;;;;;;6.70;5.50;;;;;;;20.27;92.12;99804.80;104148;1256;60698;-58
2023/09/23 03:28:36;;;;;;;9.50;5.30;;;;;;;20.24;92.41;99805.39;104002;1258;72790;-58
2023/09/23 03:31:07;;;;;;;;;;;;;;;20.24;92.46;99805.39;104007;1275;69269;-58
2023/09/23 03:33:38;;;;;;;9.30;5.30;;;;;;;20.25;92.62;99805.33;104012;1278;72350;-58
2023/09/23 03:36:13;;;;;;;10.60;5.80;;;;;;;20.21;92.01;99804.75;103971;1278;60972;-58
2023/09/23 03:38:42;;;;;;;9.90;5.60;;;;;;;20.19;92.58;99810.91;104052;1257;59719;-58
2023/09/23 03:41:11;;;;;;;10.80;6.70;;;;;;;20.18;92.86;99810.09;104132;1279;72753;-58
2023/09/23 03:43:40;;;;;;;7.60;5.90;;;;;;;20.17;92.76;99812.70;103948;1262;68285;-58
2023/09/23 03:46:17;;;;;;;6.30;5.40;;;;;;;20.15;92.76;99813.23;104008;1279;73413;-58
2023/09/23 03:48:45;;;;;;;8.80;6.00;;;;;;;20.14;93.18;99815.44;104188;1259;61519;-58
2023/09/23 03:51:14;;;;;;;9.50;5.70;;;;;;;20.08;93.52;99815.36;104198;1256;60134;-59
2023/09/23 03:53:44;;;;;;;8.00;5.90;;;;;;;20.06;93.55;99811.81;103974;1278;72811;-58
2023/09/23 03:56:12;;;;;;;8.50;5.50;;;;;;;20.06;93.89;99814.35;104122;1278;69510;-58
2023/09/23 03:58:43;;;;;;;7.80;5.40;;;;;;;20.03;93.94;99814.89;104223;1278;71265;-58
2023/09/23 04:01:13;;;;;;;6.90;5.50;;;;;;;20.00;93.98;99818.70;104177;1256;61471;-58
2023/09/23 04:03:42;;;;;;;8.20;5.50;;;;;;;20.00;94.50;99818.53;104022;1256;60672;-56
2023/09/23 04:06:13;;;;;;;11.00;5.90;;;;;;;19.99;94.94;99816.11;104220;1262;72013;-59
2023/09/23 04:08:40;;;;;;;11.40;5.90;;;;;;;19.98;94.89;99815.64;104167;1278;69293;-58
2023/09/23 04:11:08;;;;;;;;;;;;;;;19.96;95.41;99816.55;104118;1260;73384;-58
2023/09/23 04:13:38;;;;;;;9.60;5.30;;;;;;;19.94;96.06;99814.56;104092;1257;61514;-58
2023/09/23 04:16:05;;;;;;;6.40;5.80;;;;;;;19.89;95.97;99816.58;104134;1262;59692;-58
2023/09/23 04:18:33;;;;;;;9.60;6.10;;;;;;;19.86;96.65;99820.65;104184;1256;72073;-59
2023/09/23 04:21:05;;;;;;;9.30;6.00;;;;;;;19.85;96.71;99823.44;104112;1278;69223;-58
2023/09/23 04:23:33;;;;;;;7.80;5.80;;;;;;;19.85;97.08;99822.56;104116;1258;72412;-58
2023/09/23 04:26:03;;;;;;;14.40;6.20;;;;;;;19.86;97.53;99825.52;104137;1257;61617;-58
2023/09/23 04:28:31;;;;;;;8.60;6.40;;;;;;;19.87;98.49;99830.18;104318;1257;59725;-58
2023/09/23 04:31:02;;;;;;;9.70;5.90;;;;;;;19.91;97.84;99833.63;104283;1257;73519;-58
2023/09/23 04:33:33;;;;;;;9.60;5.90;;;;;;;19.97;97.18;99834.08;104273;1252;70470;-57
2023/09/23 04:36:01;;;;;;;13.30;6.70;;;;;;;20.02;96.97;99837.70;104298;1254;72317;-58
2023/09/23 04:38:28;;;;;;;9.10;5.50;;;;;;;20.09;96.91;99843.09;104304;1258;60422;-58
2023/09/23 04:40:56;;;;;;;;;;;;;;;20.13;96.60;99848.06;104332;1257;59808;-58
2023/09/23 04:43:25;;;;;;;7.20;6.10;;;;;;;20.16;96.72;99849.23;104413;1258;73712;-57
2023/09/23 04:45:53;;;;;;;7.40;6.70;;;;;;;20.18;96.68;99851.41;104404;1260;69189;-58
2023/09/23 04:48:24;;;;;;;9.80;6.60;;;;;;;20.23;97.13;99852.98;104343;1253;72462;-58
2023/09/23 04:50:55;;;;;;;13.50;6.70;;;;;;;20.29;97.59;99851.28;104420;1253;62395;-59
2023/09/23 04:53:24;;;;;;;9.60;6.30;;;;;;;20.35;98.26;99854.18;104298;1254;60091;-58
2023/09/23 04:55:55;;;;;;;9.60;6.50;;;;;;;20.41;98.68;99856.84;104332;1272;73308;-59
2023/09/23 04:58:22;;;;;;;11.20;6.90;;;;;;;20.45;99.07;99856.24;104463;1253;69974;-59
2023/09/23 05:00:51;;;;;;;14.30;7.30;;;;;;;20.47;99.71;99859.41;104263;1275;72471;-57
2023/09/23 05:03:19;;;;;;;8.20;6.90;;;;;;;20.50;99.87;99860.41;104506;1257;61486;-58
2023/09/23 05:05:49;;;;;;;12.80;7.20;;;;;;;20.53;99.90;99862.10;105776;1256;59718;-57
2023/09/23 05:08:17;;;;;;;10.40;7.00;;;;;;;20.59;99.95;99862.58;104420;1269;73705;-58
2023/09/23 05:10:45;;;;;;;;;;;;;;;20.62;99.82;99863.79;104531;1269;69894;-58
2023/09/23 05:13:17;;;;;;;9.60;6.20;;;;;;;20.66;100.00;99869.90;104500;1253;73495;-58
2023/09/23 05:15:45;;;;;;;8.60;5.80;;;;;;;20.69;99.79;99865.57;104292;1254;62559;-59
2023/09/23 05:18:13;;;;;;;9.10;6.60;;;;;;;20.73;99.70;99865.71;104385;1254;60507;-60
2023/09/23 05:20:43;;;;;;;8.10;6.10;;;;;;;20.77;98.85;99863.61;104322;1257;74528;-60
2023/09/23 05:23:13;;;;;;;7.60;6.40;;;;;;;20.82;99.11;99865.36;104391;1270;69707;-60
2023/09/23 05:25:43;;;;;;;9.30;6.30;;;;;;;20.86;98.66;99868.77;104288;1264;73794;-61
2023/09/23 05:28:11;;;;;;;11.90;6.50;;;;;;;20.90;97.58;99875.36;104315;1253;62414;-59
2023/09/23 05:30:39;;;;;;;;;;;;;;;20.93;97.12;99874.80;104331;1253;60613;-59
2023/09/23 05:33:06;;;;;;;9.80;6.90;;;;;;;20.98;96.66;99881.52;104294;1275;73742;-59
2023/09/23 05:35:35;;;;;;;10.30;6.50;;;;;;;20.99;96.51;99882.79;104227;1256;69467;-60
2023/09/23 05:38:03;;;;;;;10.70;6.50;;;;;;;21.05;95.89;99878.44;104517;1256;72381;-60
2023/09/23 05:40:36;;;;;;;8.50;6.70;;;;;;;21.09;96.50;99875.80;104349;1256;61446;-60
2023/09/23 05:43:04;;;;;;;10.40;6.50;;;;;;;21.16;96.83;99878.61;104315;1257;59962;-60
2023/09/23 05:45:37;;;;;;;7.90;6.50;;;;;;;21.20;95.52;99884.30;104416;1258;73714;-61
2023/09/23 05:48:06;;;;;;;8.50;6.30;;;;;;;21.25;95.69;99886.71;104379;1270;70094;-60
2023/09/23 05:50:36;;;;;;;10.50;6.20;;;;;;;21.32;95.03;99884.38;104259;1276;72915;-60
2023/09/23 05:53:03;;;;;;;8.30;6.20;;;;;;;21.40;95.47;99883.35;104346;1253;61435;-60
2023/09/23 05:55:31;;;;;;;12.60;6.30;;;;;;;21.49;95.75;99884.45;104318;1257;60710;-61
2023/09/23 05:57:59;;;;;;;17.70;6.70;;;;;;;21.56;94.83;99886.66;104301;1270;73600;-60
2023/09/23 06:00:27;;;;;;;13.60;6.60;;;;;;;21.62;93.97;99884.20;104301;1253;69159;-61
2023/09/23 06:02:55;;;;;;;;;;;;;;;21.69;92.89;99886.25;104477;1253;72723;-61
2023/09/23 06:05:22;;;;;;;11.20;6.80;;;;;;;21.77;92.48;99880.96;104405;1260;61524;-62
2023/09/23 06:07:52;;;;;;;13.10;6.40;;;;;;;21.83;92.93;99882.60;104732;1253;59838;-64
2023/09/23 06:10:21;;;;;;;12.40;6.70;;;;;;;21.93;91.86;99887.23;103938;1254;75341;-61
2023/09/23 06:12:49;;;;;;;7.00;6.20;;;;;;;22.03;91.77;99887.50;104887;1259;69741;-61
2023/09/23 06:15:17;;;;;;;7.40;6.40;;;;;;;22.12;91.54;99892.77;104512;1261;72752;-61
2023/09/23 06:17:45;;;;;;;8.00;5.90;;;;;;;22.21;91.15;99893.02;104261;1254;61436;-61
2023/09/23 06:20:13;;;;;;;15.70;5.90;;;;;;;22.30;88.70;99892.30;104261;1259;59851;-62
2023/09/23 06:22:40;;;;;;;;;;;;;;;22.39;86.32;99891.84;104286;1259;74539;-63
2023/09/23 06:25:08;;;;;;;8.80;5.20;;;;;;;22.49;86.01;99892.39;104656;1258;69977;-61
2023/09/23 06:27:37;;;;;;;13.40;5.40;;;;;;;22.61;85.99;99897.09;104461;1257;71879;-63
2023/09/23 06:30:05;;;;;;;11.70;5.10;;;;;;;22.73;84.57;99895.05;104526;1256;61438;-63
2023/09/23 06:32:33;;;;;;;8.10;4.80;;;;;;;22.87;82.52;99893.52;104278;1258;60505;-63
2023/09/23 06:35:01;;;;;;;;;;;;;;;23.01;80.26;99895.66;104433;1268;73680;-61
2023/09/23 06:37:29;;;;;;;8.60;5.10;;;;;;;23.13;79.61;99894.20;104664;1258;69624;-62
2023/09/23 06:39:57;;;;;;;8.50;5.80;;;;;;;23.23;77.68;99901.14;104450;1254;72391;-62
2023/09/23 06:42:25;;;;;;;;;;;;;;;23.33;76.89;99897.52;104385;1258;61487;-62
2023/09/23 06:44:52;;;;;;;9.70;5.10;;;;;;;23.46;75.96;99901.16;104404;1256;60528;-63
2023/09/23 06:47:20;;;;;;;6.80;4.90;;;;;;;23.54;75.98;99905.79;104547;1258;74429;-62
2023/09/23 06:49:48;;;;;;;9.90;5.60;;;;;;;23.65;74.41;99910.32;104292;1254;69262;-63
2023/09/23 06:52:16;;;;;;;18.30;5.90;;;;;;;23.80;71.93;99915.63;104272;1257;72690;-64
2023/09/23 06:54:44;;;;;;;;;;;;;;;23.90;71.23;99913.91;104281;1258;60723;-61
2023/09/23 06:57:13;;;;;;;14.90;5.40;;;;;;;23.99;70.55;99912.18;104221;1271;59524;-61
2023/09/23 06:59:40;;;;;;;11.80;5.40;;;;;;;24.07;70.79;99910.85;104397;1258;74567;-61
2023/09/23 07:02:08;;;;;;;12.00;5.70;;;;;;;24.19;70.61;99910.88;104431;1259;69129;-61
2023/09/23 07:04:36;;;;;;;8.70;5.40;;;;;;;24.31;69.76;99905.73;104328;1255;72372;-61
2023/09/23 07:07:04;;;;;;;;;;;;;;;24.43;69.54;99909.02;104538;1253;60555;-61
2023/09/23 07:09:32;;;;;;;9.20;5.10;;;;;;;24.55;69.47;99912.27;104273;1253;60545;-61
2023/09/23 07:11:59;;;;;;;10.20;5.40;;;;;;;24.64;69.63;99912.40;104272;1259;74215;-61
2023/09/23 07:14:30;;;;;;;9.70;5.20;;;;;;;24.75;70.16;99914.60;104270;1259;69005;-61
2023/09/23 07:16:59;;;;;;;7.80;5.60;;;;;;;24.89;70.01;99917.53;104266;1256;73383;-61
2023/09/23 07:19:27;;;;;;;10.20;5.30;;;;;;;24.99;69.55;99920.67;104714;1256;60546;-63
2023/09/23 07:21:55;;;;;;;6.20;5.20;;;;;;;25.10;69.64;99922.47;104408;1264;60480;-61
2023/09/23 07:24:24;;;;;;;11.20;4.60;;;;;;;25.20;70.11;99925.05;104923;1259;73727;-60
2023/09/23 07:26:56;;;;;;;10.90;5.30;;;;;;;25.29;69.10;99920.80;104410;1253;69805;-62
2023/09/23 07:29:24;;;;;;;19.00;5.30;;;;;;;25.38;69.10;99922.30;104292;1276;72344;-61
2023/09/23 07:31:55;;;;;;;8.00;4.70;;;;;;;25.49;68.76;99917.83;104611;1254;60595;-61
2023/09/23 07:34:24;;;;;;;16.50;5.60;;;;;;;25.59;68.72;99919.27;104298;1253;60632;-61
2023/09/23 07:36:52;;;;;;;10.20;4.80;;;;;;;25.67;69.05;99917.63;104327;1254;73701;-61
2023/09/23 07:39:22;;;;;;;7.00;4.80;;;;;;;25.77;69.66;99916.42;104277;1259;70153;-61
2023/09/23 07:41:50;;;;;;;10.50;4.80;;;;;;;25.89;69.15;99912.53;104262;1259;72376;-61
2023/09/23 07:44:17;;;;;;;14.30;5.30;;;;;;;25.96;68.88;99911.86;104523;1259;60438;-62
2023/09/23 07:46:45;;;;;;;9.30;5.20;;;;;;;26.00;69.42;99906.37;104342;1253;60629;-61
2023/09/23 07:49:13;;;;;;;;;;;;;;;26.09;69.61;99901.13;104492;1258;73491;-62
2023/09/23 07:51:43;;;;;;;12.10;4.80;;;;;;;26.16;69.24;99902.05;104436;1259;69388;-60
2023/09/23 07:54:11;;;;;;;7.60;5.00;;;;;;;26.23;69.03;99908.69;104215;1276;72350;-60
2023/09/23 07:56:39;;;;;;;;;;;;;;;26.31;68.38;99913.20;104589;1258;60568;-62
2023/09/23 07:59:06;;;;;;;8.10;4.50;;;;;;;26.38;67.99;99913.02;104319;1256;59954;-61
2023/09/23 08:01:34;;;;;;;11.20;5.20;;;;;;;26.44;67.65;99907.70;104538;1259;73737;-60
2023/09/23 08:04:02;;;;;;;10.10;5.20;;;;;;;26.46;67.64;99909.73;104298;1266;69182;-60
2023/09/23 08:06:30;;;;;;;13.80;5.70;;;;;;;26.50;67.00;99903.02;105624;1256;72530;-61
2023/09/23 08:08:58;;;;;;;11.80;4.90;;;;;;;26.54;67.26;99904.71;104264;1253;60538;-59
2023/09/23 08:11:26;;;;;;;;;;;;;;;26.63;67.57;99905.20;104379;1258;60582;-59
2023/09/23 08:13:54;;;;;;;15.20;5.40;;;;;;;26.70;67.45;99908.39;106910;1256;73604;-60
2023/09/23 08:16:22;;;;;;;;;;;;;;;26.78;67.42;99908.63;104411;1253;69995;-60
2023/09/23 08:18:49;;;;;;;;;;;;;;;26.85;67.02;99912.97;104417;1263;73354;-61
2023/09/23 08:21:18;;;;;;;9.80;5.60;;;;;;;26.87;66.54;99913.25;104433;1258;60565;-62
2023/09/23 08:23:46;;;;;;;9.70;5.80;;;;;;;26.83;65.95;99910.30;104323;1258;60559;-62
2023/09/23 08:26:15;;;;;;;9.20;5.60;;;;;;;26.74;66.08;99908.38;104286;1276;74517;-62
2023/09/23 08:28:43;;;;;;;9.90;6.00;;;;;;;26.69;66.32;99904.42;104308;1259;69673;-62
2023/09/23 08:31:12;;;;;;;11.60;5.70;;;;;;;26.70;67.23;99903.59;104226;1261;72538;-63
2023/09/23 08:33:44;;;;;;;10.40;5.90;;;;;;;26.77;67.14;99904.59;104361;1255;60551;-63
2023/09/23 08:36:14;;;;;;;10.10;6.20;;;;;;;26.85;66.91;99904.48;104216;1253;60576;-62
2023/09/23 08:38:42;;;;;;;8.30;5.70;;;;;;;26.92;66.52;99903.57;104394;1258;74575;-63
2023/09/23 08:41:10;;;;;;;11.40;6.40;;;;;;;26.97;66.48;99905.48;104298;1259;68123;-61
2023/09/23 08:43:38;;;;;;;11.40;6.50;;;;;;;27.04;66.73;99905.89;104012;1276;72929;-61
2023/09/23 08:46:09;;;;;;;12.70;5.90;;;;;;;27.08;66.88;99906.11;104372;1253;60589;-60
2023/09/23 08:48:38;;;;;;;10.70;6.20;;;;;;;27.14;66.21;99900.95;104345;1264;60517;-61
2023/09/23 08:51:08;;;;;;;8.10;5.80;;;;;;;27.22;65.57;99903.97;104415;1259;74065;-64
2023/09/23 08:53:39;;;;;;;13.00;6.50;;;;;;;27.31;64.94;99896.83;104282;1276;69179;-61
2023/09/23 08:56:08;;;;;;;7.80;5.20;;;;;;;27.41;64.37;99887.16;104327;1275;73004;-61
2023/09/23 08:58:36;;;;;;;11.90;5.70;;;;;;;27.48;64.53;99883.63;104386;1253;60701;-62
2023/09/23 09:01:03;;;;;;;;;;;;;;;27.58;63.97;99886.15;104486;1258;60461;-61
2023/09/23 09:03:31;;;;;;;9.50;5.60;;;;;;;27.68;63.74;99885.60;104308;1276;73751;-61
2023/09/23 09:06:00;;;;;;;9.70;6.00;;;;;;;27.79;63.24;99884.71;104353;1272;70030;-64
2023/09/23 09:08:30;;;;;;;7.00;5.70;;;;;;;27.92;63.31;99878.36;104405;1258;72963;-60
2023/09/23 09:10:59;;;;;;;9.40;5.70;;;;;;;28.03;61.25;99876.68;104263;1264;60563;-61
2023/09/23 09:13:30;;;;;;;12.20;5.40;;;;;;;28.10;61.01;99872.67;104608;1260;60627;-62
2023/09/23 09:15:58;;;;;;;7.10;5.20;;;;;;;28.16;60.44;99873.77;104421;1259;73695;-63
2023/09/23 09:18:28;;;;;;;7.50;5.00;;;;;;;28.24;59.46;99870.67;104689;1253;69098;-63
2023/09/23 09:21:08;;;;;;;11.60;5.90;;;;;;;28.36;59.61;99865.42;104270;1259;73425;-63
2023/09/23 09:23:38;;;;;;;7.00;5.10;;;;;;;28.46;59.04;99872.41;104285;1259;60576;-63
2023/09/23 09:26:06;;;;;;;11.90;5.60;;;;;;;28.52;58.81;99871.24;104449;1253;60559;-63
2023/09/23 09:28:33;;;;;;;9.00;5.40;;;;;;;28.54;57.42;99868.79;104302;1259;73637;-64
2023/09/23 09:31:01;;;;;;;;;;;;;;;28.60;57.64;99874.17;104327;1258;68460;-63
2023/09/23 09:33:31;;;;;;;9.10;5.00;;;;;;;28.65;57.33;99876.02;104262;1276;72910;-61
2023/09/23 09:35:58;;;;;;;12.70;5.00;;;;;;;28.68;56.27;99875.09;104425;1254;60486;-62
2023/09/23 09:38:26;;;;;;;10.30;5.00;;;;;;;28.72;56.75;99878.42;104226;1262;60594;-62
2023/09/23 09:41:04;;;;;;;6.60;4.90;;;;;;;28.75;55.25;99877.69;104249;1262;73556;-62
2023/09/23 09:43:35;;;;;;;8.30;4.90;;;;;;;28.80;54.89;99882.00;104325;1257;68070;-62
2023/09/23 09:46:12;;;;;;;7.80;4.50;;;;;;;28.87;54.76;99878.85;105113;1255;72679;-63
2023/09/23 09:48:43;;;;;;;8.20;5.10;;;;;;;28.93;53.84;99881.20;104550;1255;60535;-61
2023/09/23 09:51:15;;;;;;;8.10;4.90;;;;;;;28.92;53.33;99889.76;104434;1253;60557;-60
2023/09/23 09:53:44;;;;;;;12.90;5.10;;;;;;;28.95;53.45;99883.49;104323;1276;72630;-62
2023/09/23 09:56:12;;;;;;;8.70;4.70;;;;;;;29.05;53.24;99884.09;104614;1270;69134;-61
2023/09/23 09:58:41;;;;;;;7.80;5.20;;;;;;;29.12;53.38;99880.61;104329;1269;73369;-61
2023/09/23 10:01:11;;;;;;;5.50;4.30;;;;;;;29.20;51.98;99881.19;104302;1259;60167;-62
2023/09/23 10:03:45;;;;;;;10.40;5.00;;;;;;;29.25;51.79;99875.45;104367;1253;60537;-61
2023/09/23 10:06:22;;;;;;;7.50;4.50;;;;;;;29.35;51.72;99879.02;104473;1259;74112;-61
2023/09/23 10:08:51;;;;;;;15.90;4.30;;;;;;;29.39;51.08;99883.56;105104;1259;69473;-60
2023/09/23 10:11:31;;;;;;;7.80;4.80;;;;;;;29.45;50.82;99879.66;104448;1259;73803;-61
2023/09/23 10:14:10;;;;;;;7.40;4.70;;;;;;;29.49;50.72;99873.33;104594;1258;60431;-62
2023/09/23 10:16:48;;;;;;;8.90;4.70;;;;;;;29.53;50.89;99868.41;105674;1253;60459;-61
2023/09/23 10:19:19;;;;;;;5.40;4.80;;;;;;;29.55;50.88;99871.58;104329;1275;73583;-60
2023/09/23 10:21:47;;;;;;;6.00;3.70;;;;;;;29.62;50.56;99871.27;104336;1259;68339;-61
2023/09/23 10:24:21;;;;;;;;;;;;;;;29.70;50.49;99882.08;104437;1259;72577;-61
2023/09/23 10:26:50;;;;;;;15.10;4.20;;;;;;;29.77;49.05;99884.20;104293;1258;60755;-61
2023/09/23 10:29:20;;;;;;;16.60;4.20;;;;;;;29.82;48.15;99882.35;104314;1260;60559;-61
2023/09/23 10:31:48;;;;;;;12.00;4.00;;;;;;;29.85;48.48;99877.58;104380;1261;74171;-60
2023/09/23 10:34:15;;;;;;;;;;;;;;;29.89;49.00;99871.80;104390;1272;69505;-60
2023/09/23 10:36:48;;;;;;;7.30;4.60;;;;;;;29.92;48.23;99867.96;104486;1256;71428;-59
2023/09/23 10:39:15;;;;;;;12.00;4.60;;;;;;;29.95;48.13;99860.54;104444;1262;60632;-60
2023/09/23 10:41:44;;;;;;;11.50;4.80;;;;;;;29.96;48.22;99859.50;104423;1263;60463;-61
2023/09/23 10:44:12;;;;;;;6.70;4.60;;;;;;;29.95;47.97;99851.69;104287;1276;73617;-62
2023/09/23 10:46:42;;;;;;;8.90;4.60;;;;;;;29.98;48.00;99851.08;104316;1276;69135;-62
2023/09/23 10:49:12;;;;;;;7.40;4.40;;;;;;;30.06;47.33;99849.90;104471;1254;72461;-64
2023/09/23 10:51:40;;;;;;;10.90;4.70;;;;;;;30.09;47.42;99849.73;104290;1257;60568;-61
2023/09/23 10:54:08;;;;;;;5.90;4.60;;;;;;;30.10;47.48;99850.54;104340;1257;60478;-62
2023/09/23 10:56:36;;;;;;;13.10;4.50;;;;;;;30.12;47.03;99849.23;104387;1274;72715;-62
2023/09/23 10:59:04;;;;;;;10.30;4.60;;;;;;;30.15;46.65;99844.42;104357;1276;70169;-61
2023/09/23 11:01:33;;;;;;;;;;;;;;;30.19;46.79;99844.52;104281;1262;72370;-62
2023/09/23 11:04:01;;;;;;;9.30;4.70;;;;;;;30.20;46.77;99845.70;104855;1259;60421;-63
2023/09/23 11:06:29;;;;;;;7.80;4.80;;;;;;;30.20;46.58;99842.79;104723;1263;62758;-63
2023/09/23 11:08:57;;;;;;;;;;;;;;;30.24;46.34;99844.06;105740;1256;74347;-62
2023/09/23 11:11:26;;;;;;;9.10;4.80;;;;;;;30.30;46.11;99841.95;104281;1276;69725;-61
2023/09/23 11:13:55;;;;;;;6.80;4.20;;;;;;;30.34;46.14;99839.32;104387;1257;72633;-61
2023/09/23 11:16:23;;;;;;;;;;;;;;;30.42;46.47;99839.38;104590;1255;60048;-62
2023/09/23 11:18:52;;;;;;;10.10;5.30;;;;;;;30.53;46.05;99830.83;104349;1258;60446;-61
2023/09/23 11:21:20;;;;;;;7.70;4.30;;;;;;;30.54;45.71;99835.02;104296;1254;74148;-61
2023/09/23 11:23:59;;;;;;;9.90;4.60;;;;;;;30.60;45.94;99838.30;104422;1272;69201;-61
2023/09/23 11:26:29;;;;;;;9.00;4.70;;;;;;;30.61;45.52;99828.88;104302;1259;72438;-61
2023/09/23 11:28:57;;;;;;;7.60;5.20;;;;;;;30.61;45.24;99822.95;104548;1262;60567;-61
2023/09/23 11:31:25;;;;;;;9.90;4.80;;;;;;;30.62;45.25;99818.33;104335;1258;60516;-61
2023/09/23 11:33:53;;;;;;;11.30;4.80;;;;;;;30.61;45.14;99808.44;104439;1259;74953;-61
2023/09/23 11:36:21;;;;;;;8.30;4.80;;;;;;;30.60;45.47;99810.00;104318;1276;69222;-61
2023/09/23 11:38:49;;;;;;;;;;;;;;;30.61;45.21;99809.85;104618;1259;72768;-61
2023/09/23 11:41:17;;;;;;;6.90;5.30;;;;;;;30.65;44.93;99808.71;104301;1260;60517;-61